Schneifelwetter: Wetterstation Hallschlag, 537 m . NN
Wetterdaten: Mittwoch, 18.04.2007
Datum Zeit Temp. A. Temp. 2 Feuchte A. Luftdruck Regen Wind Richtung Richtung Sonnenschein Helligkeit T Regen Taupunkt Windchill
18.04.2007 00:10 5,1 C 2,2 C 72 % 1020 hPa 0,0 l/m 9,0 km/h (2 Bft) N-NW67.5 340 0 min 0 lux 0,00 min 0,5 C 2,9 C
18.04.2007 00:25 4,7 C 1,9 C 72 % 1020 hPa 0,0 l/m 4,2 km/h (1 Bft) N-NW22.5 345 0 min 0 lux 0,00 min 0,1 C 4,7 C
18.04.2007 00:40 4,6 C 1,9 C 75 % 1020 hPa 0,0 l/m 8,2 km/h (2 Bft) N-NW45 335 0 min 0 lux 0,00 min 0,6 C 3,0 C
18.04.2007 00:55 4,7 C 2,1 C 76 % 1020 hPa 0,0 l/m 9,8 km/h (2 Bft) N22.5 360 0 min 0 lux 0,00 min 0,8 C 1,9 C
18.04.2007 01:10 4,6 C 2,5 C 77 % 1020 hPa 0,0 l/m 8,0 km/h (2 Bft) N22.5 350 0 min 0 lux 0,00 min 0,9 C 3,2 C
18.04.2007 01:25 5,2 C 3,5 C 80 % 1020 hPa 0,0 l/m 13,8 km/h (3 Bft) N-NW67.5 345 0 min 0 lux 0,00 min 2,0 C -0,0 C
18.04.2007 01:40 5,7 C 4,2 C 81 % 1020 hPa 0,0 l/m 26,3 km/h (4 Bft) N67.5 350 0 min 0 lux 0,00 min 2,7 C -4,4 C
18.04.2007 01:55 5,8 C 4,8 C 79 % 1020 hPa 0,0 l/m 19,3 km/h (3 Bft) N22.5 10 0 min 0 lux 0,00 min 2,4 C -1,9 C
18.04.2007 02:10 5,8 C 5,0 C 79 % 1020 hPa 0,0 l/m 21,8 km/h (4 Bft) N67.5 360 0 min 0 lux 0,00 min 2,4 C -2,8 C
18.04.2007 02:25 5,7 C 5,0 C 79 % 1020 hPa 0,0 l/m 22,3 km/h (4 Bft) N67.5 5 0 min 0 lux 0,00 min 2,3 C -3,1 C
18.04.2007 02:39 5,6 C 5,0 C 80 % 1020 hPa 0,0 l/m 19,5 km/h (3 Bft) N22.5 10 0 min 0 lux 0,00 min 2,4 C -2,2 C
18.04.2007 02:54 5,5 C 5,0 C 79 % 1020 hPa 0,0 l/m 18,1 km/h (3 Bft) N-NO45 15 0 min 0 lux 0,00 min 2,2 C -1,8 C
18.04.2007 03:09 5,3 C 4,8 C 80 % 1020 hPa 0,0 l/m 11,8 km/h (2 Bft) N22.5 360 0 min 0 lux 0,00 min 2,1 C 1,2 C
18.04.2007 03:24 5,1 C 4,5 C 80 % 1020 hPa 0,0 l/m 14,0 km/h (3 Bft) N22.5 10 0 min 0 lux 0,00 min 1,9 C -0,3 C
18.04.2007 03:39 4,7 C 4,1 C 80 % 1020 hPa 0,0 l/m 8,7 km/h (2 Bft) N22.5 10 0 min 0 lux 0,00 min 1,6 C 2,7 C
18.04.2007 03:54 4,4 C 3,4 C 80 % 1020 hPa 0,0 l/m 7,4 km/h (2 Bft) N67.5 350 0 min 0 lux 0,00 min 1,3 C 3,5 C
18.04.2007 04:09 4,3 C 3,2 C 81 % 1020 hPa 0,0 l/m 10,9 km/h (2 Bft) N22.5 5 0 min 0 lux 0,00 min 1,3 C 0,7 C
18.04.2007 04:24 4,4 C 3,4 C 83 % 1020 hPa 0,0 l/m 15,1 km/h (3 Bft) N-NO45 15 0 min 0 lux 0,00 min 1,8 C -1,7 C
18.04.2007 04:39 4,4 C 3,4 C 83 % 1020 hPa 0,0 l/m 16,8 km/h (3 Bft) N-NO22.5 20 0 min 0 lux 0,00 min 1,8 C -2,5 C
18.04.2007 04:54 4,1 C 2,8 C 82 % 1020 hPa 0,0 l/m 14,6 km/h (3 Bft) N-NO22.5 15 0 min 0 lux 0,00 min 1,3 C -1,8 C
18.04.2007 05:09 3,8 C 2,3 C 83 % 1021 hPa 0,0 l/m 8,1 km/h (2 Bft) N 355 0 min 0 lux 0,00 min 1,2 C 2,3 C
18.04.2007 05:24 3,6 C 2,3 C 84 % 1021 hPa 0,0 l/m 12,5 km/h (3 Bft) N-NW45 330 0 min 0 lux 0,00 min 1,2 C -1,2 C
18.04.2007 05:39 3,7 C 2,6 C 84 % 1021 hPa 0,0 l/m 7,3 km/h (2 Bft) N-NW22.5 340 0 min 0 lux 0,00 min 1,3 C 2,9 C
18.04.2007 05:54 3,6 C 2,7 C 84 % 1020 hPa 0,0 l/m 12,7 km/h (3 Bft) N22.5 350 0 min 0 lux 0,00 min 1,2 C -1,3 C
18.04.2007 06:09 3,6 C 2,8 C 84 % 1021 hPa 0,0 l/m 16,3 km/h (3 Bft) N22.5 5 0 min 0 lux 0,00 min 1,2 C -3,3 C
18.04.2007 06:24 3,6 C 3,0 C 84 % 1021 hPa 0,0 l/m 19,9 km/h (4 Bft) N22.5 5 0 min 79 lux 0,00 min 1,2 C -4,9 C
18.04.2007 06:39 3,8 C 3,1 C 83 % 1021 hPa 0,0 l/m 16,7 km/h (3 Bft) N45 5 0 min 278 lux 0,00 min 1,2 C -3,2 C
18.04.2007 06:54 3,8 C 3,1 C 82 % 1021 hPa 0,0 l/m 25,9 km/h (4 Bft) N-NO67.5 30 0 min 1,11 klux 0,00 min 1,0 C -6,9 C
18.04.2007 07:09 3,8 C 3,0 C 82 % 1021 hPa 0,0 l/m 13,8 km/h (3 Bft) N67.5 350 0 min 2,09 klux 0,00 min 1,0 C -1,7 C
18.04.2007 07:24 3,9 C 3,3 C 82 % 1021 hPa 0,0 l/m 11,0 km/h (2 Bft) N22.5 10 0 min 3,01 klux 0,00 min 1,1 C 0,1 C
18.04.2007 07:39 4,0 C 3,5 C 81 % 1021 hPa 0,0 l/m 10,9 km/h (2 Bft) N-NW22.5 345 0 min 4,31 klux 0,00 min 1,0 C 0,3 C
18.04.2007 08:01 4,3 C 3,8 C 81 % 1021 hPa 0,0 l/m 8,1 km/h (2 Bft) NW22.5 325 0 min 7,15 klux 0,00 min 1,3 C 2,8 C
18.04.2007 08:15 4,7 C 4,1 C 80 % 1021 hPa 0,0 l/m 9,4 km/h (2 Bft) N22.5 5 0 min 9,5 klux 0,00 min 1,6 C 2,2 C
18.04.2007 08:30 5,1 C 4,5 C 79 % 1021 hPa 0,0 l/m 13,5 km/h (3 Bft) N-NO22.5 15 0 min 12,9 klux 0,00 min 1,8 C -0,0 C
18.04.2007 08:45 5,1 C 4,9 C 78 % 1022 hPa 0,0 l/m 14,9 km/h (3 Bft) N67.5 10 0 min 10,5 klux 0,00 min 1,6 C -0,8 C
18.04.2007 09:01 5,6 C 5,3 C 79 % 1022 hPa 0,0 l/m 8,1 km/h (2 Bft) N-NW22.5 330 0 min 17,7 klux 0,00 min 2,3 C 4,2 C
18.04.2007 09:16 6,2 C 6,1 C 77 % 1022 hPa 0,0 l/m 13,9 km/h (3 Bft) N-NO45 20 0 min 17,0 klux 0,00 min 2,5 C 1,1 C
18.04.2007 09:31 6,4 C 6,5 C 73 % 1022 hPa 0,0 l/m 17,1 km/h (3 Bft) N45 10 0 min 22,6 klux 0,00 min 1,9 C -0,2 C
18.04.2007 09:45 7,0 C 7,2 C 71 % 1022 hPa 0,0 l/m 18,5 km/h (3 Bft) N45 5 0 min 41,5 klux 0,00 min 2,1 C -0,0 C
18.04.2007 10:00 7,1 C 7,5 C 70 % 1022 hPa 0,0 l/m 17,3 km/h (3 Bft) N45 360 0 min 27,0 klux 0,00 min 2,0 C 0,6 C
18.04.2007 10:16 7,2 C 7,7 C 69 % 1022 hPa 0,0 l/m 19,3 km/h (3 Bft) N67.5 5 0 min 36,4 klux 0,00 min 1,9 C -0,1 C
18.04.2007 10:31 7,7 C 8,7 C 69 % 1022 hPa 0,0 l/m 16,3 km/h (3 Bft) N-NO67.5 20 0 min 44,9 klux 0,00 min 2,4 C 1,8 C
18.04.2007 10:46 8,8 C 10,1 C 65 % 1022 hPa 0,0 l/m 21,0 km/h (4 Bft) NO67.5 40 0 min 53,9 klux 0,00 min 2,6 C 1,4 C
18.04.2007 11:00 9,0 C 10,5 C 62 % 1022 hPa 0,0 l/m 21,3 km/h (4 Bft) N45 10 0 min 51,1 klux 0,00 min 2,1 C 1,6 C
18.04.2007 11:15 9,0 C 11,1 C 60 % 1022 hPa 0,0 l/m 22,0 km/h (4 Bft) NO45 35 15 min 71,2 klux 0,00 min 1,7 C 1,3 C
18.04.2007 11:30 9,4 C 11,9 C 59 % 1022 hPa 0,0 l/m 17,8 km/h (3 Bft) N-NO22.5 15 15 min 70,2 klux 0,00 min 1,8 C 3,3 C
18.04.2007 11:46 9,2 C 11,9 C 59 % 1022 hPa 0,0 l/m 19,8 km/h (3 Bft) N-NW45 330 0 min 53,5 klux 0,00 min 1,6 C 2,3 C
18.04.2007 12:01 9,5 C 12,7 C 58 % 1022 hPa 0,0 l/m 18,6 km/h (3 Bft) N-NW67.5 345 15 min 87,0 klux 0,00 min 1,7 C 3,1 C
18.04.2007 12:15 10,2 C 14,5 C 55 % 1022 hPa 0,0 l/m 23,4 km/h (4 Bft) N-NO67.5 30 14 min 90,2 klux 0,00 min 1,6 C 2,5 C
18.04.2007 12:30 10,4 C 15,3 C 54 % 1022 hPa 0,0 l/m 19,5 km/h (3 Bft) N-NO67.5 15 15 min 78,2 klux 0,00 min 1,5 C 4,0 C
18.04.2007 12:45 9,9 C 14,8 C 55 % 1022 hPa 0,0 l/m 22,8 km/h (4 Bft) N-NO45 15 15 min 102 klux 0,00 min 1,3 C 2,3 C
18.04.2007 13:01 10,5 C 16,9 C 54 % 1022 hPa 0,0 l/m 20,3 km/h (4 Bft) N45 360 16 min 110 klux 0,00 min 1,6 C 3,8 C
18.04.2007 13:16 10,6 C 16,9 C 51 % 1022 hPa 0,0 l/m 24,3 km/h (4 Bft) N-NO45 30 15 min 110 klux 0,00 min 0,9 C 2,8 C
18.04.2007 13:31 10,4 C 16,3 C 52 % 1022 hPa 0,0 l/m 26,5 km/h (4 Bft) N-NO67.5 15 15 min 109 klux 0,00 min 1,0 C 2,0 C
18.04.2007 13:45 10,8 C 16,5 C 51 % 1022 hPa 0,0 l/m 20,5 km/h (4 Bft) N-NW45 340 14 min 111 klux 0,00 min 1,1 C 4,2 C
18.04.2007 14:00 10,2 C 14,7 C 50 % 1022 hPa 0,0 l/m 25,8 km/h (4 Bft) N22.5 5 15 min 62,4 klux 0,00 min 0,3 C 1,9 C
18.04.2007 14:15 11,4 C 17,5 C 49 % 1022 hPa 0,0 l/m 15,5 km/h (3 Bft) N67.5 350 15 min 117 klux 0,00 min 1,1 C 6,6 C
18.04.2007 14:31 11,0 C 16,3 C 49 % 1022 hPa 0,0 l/m 20,0 km/h (4 Bft) N-NW22.5 330 16 min 102 klux 0,00 min 0,7 C 4,6 C
18.04.2007 14:46 11,5 C 17,0 C 47 % 1022 hPa 0,0 l/m 23,4 km/h (4 Bft) O-NO67.5 60 15 min 110 klux 0,00 min 0,6 C 4,3 C
18.04.2007 15:00 11,5 C 17,3 C 49 % 1022 hPa 0,0 l/m 25,6 km/h (4 Bft) N45 355 14 min 102 klux 0,00 min 1,2 C 3,7 C
18.04.2007 15:15 11,3 C 18,5 C 48 % 1022 hPa 0,0 l/m 26,5 km/h (4 Bft) NO22.5 35 15 min 109 klux 0,00 min 0,7 C 3,2 C
18.04.2007 15:30 10,9 C 16,6 C 46 % 1021 hPa 0,0 l/m 21,8 km/h (4 Bft) N-NO67.5 30 15 min 97,6 klux 0,00 min -0,3 C 3,9 C
18.04.2007 15:46 11,3 C 16,8 C 47 % 1021 hPa 0,0 l/m 23,3 km/h (4 Bft) N-NO45 25 16 min 101 klux 0,00 min 0,4 C 4,0 C
18.04.2007 16:01 11,0 C 15,4 C 46 % 1021 hPa 0,0 l/m 20,4 km/h (4 Bft) N67.5 360 0 min 41,1 klux 0,00 min -0,2 C 4,5 C
18.04.2007 16:16 10,9 C 14,7 C 48 % 1021 hPa 0,0 l/m 27,1 km/h (4 Bft) N-NO67.5 15 0 min 38,7 klux 0,00 min 0,3 C 2,5 C
18.04.2007 16:30 11,2 C 15,8 C 48 % 1021 hPa 0,0 l/m 19,5 km/h (3 Bft) N-NO67.5 15 14 min 65,2 klux 0,00 min 0,6 C 5,0 C
18.04.2007 16:45 11,4 C 17,8 C 49 % 1021 hPa 0,0 l/m 20,7 km/h (4 Bft) N67.5 355 15 min 81,3 klux 0,00 min 1,1 C 4,9 C
18.04.2007 17:01 11,4 C 16,2 C 48 % 1021 hPa 0,0 l/m 22,5 km/h (4 Bft) N-NO45 25 16 min 82,4 klux 0,00 min 0,8 C 4,4 C
18.04.2007 17:16 10,6 C 14,7 C 48 % 1021 hPa 0,0 l/m 22,6 km/h (4 Bft) N67.5 5 15 min 65,6 klux 0,00 min 0,1 C 3,3 C
18.04.2007 17:31 10,6 C 13,5 C 51 % 1021 hPa 0,0 l/m 14,1 km/h (3 Bft) N22.5 5 0 min 24,2 klux 0,00 min 0,9 C 6,2 C
18.04.2007 17:45 10,8 C 12,8 C 50 % 1021 hPa 0,0 l/m 17,8 km/h (3 Bft) N45 355 0 min 22,5 klux 0,00 min 0,8 C 5,0 C
18.04.2007 18:00 10,6 C 12,1 C 50 % 1021 hPa 0,0 l/m 19,4 km/h (3 Bft) N-NO45 25 0 min 18,7 klux 0,00 min 0,6 C 4,3 C
18.04.2007 18:15 10,9 C 13,9 C 49 % 1021 hPa 0,0 l/m 19,3 km/h (3 Bft) N22.5 10 0 min 44,5 klux 0,00 min 0,6 C 4,7 C
18.04.2007 18:31 10,5 C 13,1 C 47 % 1021 hPa 0,0 l/m 19,2 km/h (3 Bft) N-NO22.5 15 0 min 38,8 klux 0,00 min -0,3 C 4,2 C
18.04.2007 18:46 9,9 C 11,4 C 51 % 1021 hPa 0,0 l/m 16,7 km/h (3 Bft) N22.5 350 0 min 10,0 klux 0,00 min 0,2 C 4,3 C
18.04.2007 19:00 9,8 C 10,8 C 52 % 1021 hPa 0,0 l/m 11,0 km/h (2 Bft) N22.5 5 0 min 10,1 klux 0,00 min 0,4 C 6,8 C
18.04.2007 19:15 9,6 C 9,9 C 52 % 1021 hPa 0,0 l/m 11,0 km/h (2 Bft) N45 10 0 min 8,29 klux 0,00 min 0,2 C 6,6 C
18.04.2007 19:30 9,4 C 9,3 C 53 % 1021 hPa 0,0 l/m 10,1 km/h (2 Bft) N-NW22.5 330 0 min 6,39 klux 0,00 min 0,3 C 6,9 C
18.04.2007 19:46 9,0 C 8,7 C 54 % 1021 hPa 0,0 l/m 7,9 km/h (2 Bft) N22.5 5 0 min 4,75 klux 0,00 min 0,2 C 7,9 C
18.04.2007 20:01 8,6 C 8,1 C 55 % 1021 hPa 0,0 l/m 8,7 km/h (2 Bft) N22.5 10 0 min 2,74 klux 0,00 min 0,1 C 6,9 C
18.04.2007 20:16 8,2 C 7,1 C 55 % 1021 hPa 0,0 l/m 3,3 km/h (1 Bft) N 360 0 min 2,05 klux 0,00 min -0,3 C 8,2 C
18.04.2007 20:30 7,7 C 5,3 C 56 % 1021 hPa 0,0 l/m 3,7 km/h (1 Bft) N 5 0 min 1,41 klux 0,00 min -0,5 C 7,7 C
18.04.2007 20:45 6,8 C 3,8 C 57 % 1021 hPa 0,0 l/m 4,5 km/h (1 Bft) N-NO 25 0 min 499 lux 0,00 min -1,1 C 6,8 C
18.04.2007 21:01 5,8 C 3,0 C 60 % 1021 hPa 0,0 l/m 4,2 km/h (1 Bft) W22.5 260 0 min 58 lux 0,00 min -1,4 C 5,8 C
18.04.2007 21:16 4,9 C 2,4 C 61 % 1021 hPa 0,0 l/m 3,4 km/h (1 Bft) W 260 0 min 16 lux 0,00 min -2,0 C 4,9 C
18.04.2007 21:31 4,2 C 1,7 C 62 % 1021 hPa 0,0 l/m 0,0 km/h (0 Bft) SW 230 0 min 0 lux 0,00 min -2,4 C 4,2 C
18.04.2007 21:46 3,3 C 0,6 C 63 % 1021 hPa 0,0 l/m 0,0 km/h (0 Bft) SW 230 0 min 0 lux 0,00 min -3,1 C 3,3 C
18.04.2007 22:00 2,7 C 0,1 C 65 % 1021 hPa 0,0 l/m 0,0 km/h (0 Bft) SW 230 0 min 0 lux 0,00 min -3,2 C 2,7 C
18.04.2007 22:15 2,1 C -0,7 C 66 % 1021 hPa 0,0 l/m 0,0 km/h (0 Bft) SW 230 0 min 0 lux 0,00 min -3,6 C 2,1 C
18.04.2007 22:30 1,5 C -1,2 C 68 % 1021 hPa 0,0 l/m 1,3 km/h (1 Bft) W-SW 255 0 min 0 lux 0,00 min -3,7 C 1,5 C
18.04.2007 22:45 1,0 C -1,5 C 69 % 1021 hPa 0,0 l/m 0,0 km/h (0 Bft) W-SW 255 0 min 0 lux 0,00 min -4,0 C 1,0 C
18.04.2007 23:01 0,5 C -1,9 C 70 % 1021 hPa 0,0 l/m 0,1 km/h (0 Bft) W-SW 255 0 min 0 lux 0,00 min -4,3 C 0,5 C
18.04.2007 23:16 0,1 C -2,4 C 71 % 1022 hPa 0,0 l/m 0,0 km/h (0 Bft) W-SW 255 0 min 0 lux 0,00 min -4,5 C 0,1 C
18.04.2007 23:31 -0,3 C -2,7 C 72 % 1021 hPa 0,0 l/m 0,0 km/h (0 Bft) W-SW 255 0 min 0 lux 0,00 min -4,7 C -0,3 C
18.04.2007 23:45 -0,6 C -3,1 C 73 % 1021 hPa 0,0 l/m 0,0 km/h (0 Bft) W-SW 255 0 min 0 lux 0,00 min -4,8 C -0,6 C
_ Min-Zeit 23:45 23:45 15:30 00:10 - 21:31 - - - - - 23:45 06:54
Minimum _ -0,6 C -3,1 C 46 % 1020 hPa - 0,0 km/h (0 Bft) - - - - - -4,8 C -6,9 C
_ Max-Zeit 14:46 15:15 05:24 08:45 00:10 16:16 - - 13:01 14:15 00:10 01:40 20:16
Maximum _ 11,5 C 18,5 C 84 % 1022 hPa 0,0 l/m 27,1 km/h
N-NO (4 Bft)
- - 16 min 117 klux 0,00 min 2,7 C 8,2 C
Durchschnitt _ 6,8 C 7,5 C 66 % 1021 hPa #0,0 l/m 14,3 km/h (3 Bft) N - #5:30 h 28,7 klux #0 min. 0,6 C 2,1 C